الصفحة الرئيسية
METAR-TAF:

METAR-TAF

مطار :

مطار شيان شيانيانغ الدولي

شيان, جمهورية الصين الشعبية

دائرة عرض: 34-26N, خط طول: 108-45E, ارتفاع: 479 متر

مراقبة الطقس الحالي

تاريخ ووقت الإصدار 55 دقيقة قبل الساعة 04:00UTC
ريح 4 عقدة من الجنوب, الاتجاه يتراوح بين الشرق/الجنوب الشرقي و الغرب
درجة الحرارة 6°درجة مئوية
الرطوبة 65%
ضغط 1025 hPa
الرؤية: 3000 متر
العجاج

METAR: ZLXY 220400Z 17002MPS 120V260 3000 HZ NSC 06/M00 Q1025 NOSIG

زمن: 12:55 (04:55 UTC)

توقعات

تاريخ ووقت الإصدار 5ساعات و 47 دقيقة قبل الساعة 23:08UTC
التوقعات صالحة من22 الساعة 00 UTC إلى 22 الساعة 24 UTC
ريح 6 عقدة من الغرب
الرؤية: 0200 متر
ضباب مجمِّد
أصبح
من 22 الساعة 00 UTC إلى 22 الساعة 01 UTC
الرؤية: 0500 متر
أصبح
من 22 الساعة 01 UTC إلى 22 الساعة 02 UTC
الرؤية: 0800 متر
أصبح
من 22 الساعة 03 UTC إلى 22 الساعة 04 UTC
الرؤية: 3000 متر
العجاج

TAF: ZLXY 212308Z 2200/2224 26003MPS 0200 FZFG NSC TX11/2208Z TNM02/22Z BECMG 2200/2201 0500 BECMG 2201/2202 0800 BECMG 2203/2204 3000 HZ

أرصاد الطقس والتوقعات من أكثر من 4000 مطار (تقارير الطقس للمطار METAR والتنبؤ بالطقس بالمطارTAF).

المحطات المتاحة هي النقط الصفراء والحمراء على الخريطة.

حرك المؤشر فوق النقطة لمعرفة اسم المحطة.

ثم انقر لمعرفة أرصاد وتوقعات الطقس.

لتغيير الخارطة: اضغط على الأزرار الخضراء مع رمز الصليب الأسود للتكبير. على الزر الأخضر مع شرطة للتصغير، أو على الأسهم الخضراء للخرائط المجاورة.


METAR-TAF: